Time;durP1;ratioP1;P1;durP2;ratioP2;P2;SDS_P1;SDS_P2;PMS_P1;PMS_P2;Temp;Humidity;BMP_temperature;BMP_pressure;BME280_temperature;BME280_humidity;BME280_pressure;Samples;Min_cycle;Max_cycle;Signal;HPM_P1;HPM_P2
2023/03/19 07:35:09;;;;;;;0.47;0.47;;;11.70;99.90;15.10;100997.00;;;;6354508;22;20205;-67
2023/03/19 07:37:35;;;;;;;0.20;0.20;;;11.90;99.90;13.80;100990.00;;;;6341603;22;20174;-67
2023/03/19 07:40:16;;;;;;;0.30;0.30;;;11.70;99.90;13.60;100959.00;;;;6341825;22;20159;-67
2023/03/19 07:42:50;;;;;;;0.20;0.20;;;11.30;99.90;15.40;100994.00;;;;6341655;22;20186;-68
2023/03/19 07:45:19;;;;;;;0.20;0.20;;;12.00;99.90;17.50;101021.00;;;;6369668;22;20167;-67
2023/03/19 07:47:46;;;;;;;0.30;0.30;;;13.20;99.90;18.30;101062.00;;;;6342109;22;20161;-67
2023/03/19 07:50:12;;;;;;;1.37;1.37;;;14.30;99.90;17.50;101059.00;;;;6342585;22;20170;-67
2023/03/19 07:52:38;;;;;;;0.77;0.77;;;14.40;99.90;16.70;101025.00;;;;6316000;22;20167;-67
2023/03/19 07:55:07;;;;;;;0.50;0.50;;;14.10;99.90;16.50;101040.00;;;;6369989;22;20161;-67
2023/03/19 07:57:42;;;;;;;0.30;0.30;;;14.10;99.90;16.50;101046.00;;;;6315702;22;20195;-69
2023/03/19 08:00:29;;;;;;;0.20;0.20;;;13.90;99.90;17.70;101022.00;;;;6315196;22;20179;-67
2023/03/19 08:03:13;;;;;;;0.10;0.10;;;14.50;99.90;18.00;101014.00;;;;6311253;22;20187;-67
2023/03/19 08:05:38;;;;;;;0.10;0.10;;;14.60;99.90;16.60;101037.00;;;;6308360;22;20172;-67
2023/03/19 08:08:07;;;;;;;0.20;0.20;;;14.40;99.90;18.80;101062.00;;;;6337107;22;20165;-67
2023/03/19 08:10:41;;;;;;;0.27;0.27;;;15.30;99.90;19.00;101063.00;;;;6342263;22;20172;-67
2023/03/19 08:13:09;;;;;;;0.20;0.20;;;15.30;99.90;19.20;101063.00;;;;6370022;22;20168;-67
2023/03/19 08:15:36;;;;;;;0.20;0.20;;;15.50;99.90;20.00;101088.00;;;;6341713;22;20168;-67
2023/03/19 08:18:09;;;;;;;0.10;0.10;;;16.20;99.90;16.40;101074.00;;;;6342077;22;20211;-67
2023/03/19 08:21:04;;;;;;;0.50;0.50;;;15.20;99.90;15.80;101036.00;;;;6341781;22;20671;-67
2023/03/19 08:23:58;;;;;;;0.27;0.27;;;14.00;99.90;17.20;101077.00;;;;6341925;22;20189;-67
2023/03/19 08:26:42;;;;;;;0.30;0.30;;;14.30;99.90;16.20;101066.00;;;;6294323;22;20172;-67
2023/03/19 08:29:13;;;;;;;0.40;0.40;;;14.00;99.90;17.80;101034.00;;;;6319041;22;20173;-67
2023/03/19 08:31:39;;;;;;;0.40;0.40;;;14.10;99.90;19.20;101113.00;;;;6342444;22;20174;-67
2023/03/19 08:34:09;;;;;;;0.20;0.20;;;15.00;99.90;16.30;101074.00;;;;6341519;22;20189;-67
2023/03/19 08:36:35;;;;;;;1.00;0.80;;;14.50;99.90;16.10;101056.00;;;;6341664;22;20632;-67
2023/03/19 08:39:06;;;;;;;0.20;0.20;;;13.70;99.90;16.70;101076.00;;;;6341539;22;20164;-67
2023/03/19 08:41:32;;;;;;;0.30;0.30;;;13.70;99.90;15.60;101077.00;;;;6369585;22;20163;-67
2023/03/19 08:44:17;;;;;;;2.67;1.13;;;13.40;99.90;14.50;101032.00;;;;6341630;22;20583;-67
2023/03/19 08:46:46;;;;;;;1.07;1.03;;;12.70;99.90;14.80;101052.00;;;;6341923;22;20239;-67
2023/03/19 08:49:24;;;;;;;0.20;0.20;;;12.50;99.90;16.60;101062.00;;;;6341820;22;20242;-67
2023/03/19 08:51:52;;;;;;;0.73;0.70;;;13.00;99.90;16.90;101103.00;;;;6342547;22;20598;-67
2023/03/19 08:54:29;;;;;;;7.63;3.27;;;13.50;99.90;15.30;101096.00;;;;6341708;22;20170;-67
2023/03/19 08:57:15;;;;;;;1.77;1.67;;;13.20;99.90;15.00;101073.00;;;;6341656;22;20167;-67
2023/03/19 09:00:20;;;;;;;0.87;0.87;;;12.80;99.90;14.70;101083.00;;;;6341591;22;20207;-67
2023/03/19 09:02:49;;;;;;;0.20;0.20;;;12.50;99.90;15.50;101076.00;;;;6317756;22;20178;-67
2023/03/19 09:05:29;;;;;;;0.57;0.53;;;12.60;99.90;14.50;101085.00;;;;6369186;22;20172;-67
2023/03/19 09:08:15;;;;;;;0.40;0.40;;;12.40;99.90;14.70;101074.00;;;;6342735;22;20161;-67
2023/03/19 09:11:04;;;;;;;0.90;0.90;;;12.30;99.90;14.90;101085.00;;;;6315406;22;20173;-67
2023/03/19 09:14:01;;;;;;;8.53;5.37;;;12.30;99.90;14.10;101090.00;;;;6314562;22;20197;-67
2023/03/19 09:17:05;;;;;;;2.63;1.23;;;12.00;99.90;13.50;101107.00;;;;6341389;22;20226;-67
2023/03/19 09:20:03;;;;;;;2.10;2.00;;;11.90;99.90;13.50;101053.00;;;;6341345;22;20175;-67
2023/03/19 09:22:41;;;;;;;4.80;4.40;;;11.60;99.90;12.90;101078.00;;;;6369228;22;20268;-67
2023/03/19 09:25:25;;;;;;;8.30;3.90;;;11.30;99.90;13.90;101044.00;;;;6342403;22;20668;-67
2023/03/19 09:27:58;;;;;;;7.43;4.00;;;11.50;99.90;13.60;101095.00;;;;6369007;22;20174;-67
2023/03/19 09:30:28;;;;;;;2.57;1.70;;;11.40;99.90;14.40;101060.00;;;;6330665;22;20167;-67
2023/03/19 09:33:03;;;;;;;3.63;3.33;;;11.70;99.90;15.00;101119.00;;;;6312785;22;20174;-67
2023/03/19 09:35:38;;;;;;;4.60;4.17;;;11.90;99.90;14.30;101123.00;;;;6315439;22;20189;-67
2023/03/19 09:38:04;;;;;;;1.50;1.50;;;11.90;99.90;14.80;101125.00;;;;6369504;22;20158;-67
2023/03/19 09:41:06;;;;;;;10.47;5.00;;;11.80;99.90;14.70;101132.00;;;;6341306;22;20248;-67
2023/03/19 09:43:57;;;;;;;2.97;1.93;;;11.90;99.90;14.30;101122.00;;;;6341055;22;20181;-67
2023/03/19 09:46:48;;;;;;;8.33;4.03;;;11.90;99.90;15.50;101122.00;;;;6340383;22;20574;-67
2023/03/19 09:49:57;;;;;;;1.40;1.30;;;12.30;99.90;14.70;101158.00;;;;6369485;22;20163;-67
2023/03/19 09:52:44;;;;;;;2.40;2.20;;;12.20;99.90;15.20;101167.00;;;;6197454;22;20173;-67
2023/03/19 09:55:46;;;;;;;1.70;1.70;;;12.30;99.90;15.70;101173.00;;;;6341402;22;20229;-66
2023/03/19 09:58:20;;;;;;;2.23;2.13;;;12.50;99.90;13.50;101102.00;;;;6309201;22;20253;-67
2023/03/19 10:00:55;;;;;;;1.50;1.20;;;11.90;99.90;13.90;101137.00;;;;6341507;22;20200;-67
2023/03/19 10:03:49;;;;;;;6.60;3.07;;;11.70;99.90;14.70;101163.00;;;;6341673;22;20191;-67
2023/03/19 10:06:32;;;;;;;0.97;0.97;;;12.00;99.90;14.30;101118.00;;;;6341837;22;20240;-66
2023/03/19 10:09:21;;;;;;;6.60;6.00;;;12.00;99.90;14.20;101147.00;;;;6341572;22;20193;-67
2023/03/19 10:12:16;;;;;;;1.17;1.17;;;11.70;99.90;15.20;101165.00;;;;6266367;22;20170;-67
2023/03/19 10:15:06;;;;;;;20.87;8.07;;;12.10;99.90;15.80;101177.00;;;;6368981;22;20161;-68
2023/03/19 10:18:04;;;;;;;0.83;0.83;;;12.50;99.90;15.50;101168.00;;;;6368939;22;20161;-76
2023/03/19 10:33:51;;;;;;;0.30;0.30;;;11.40;99.90;13.50;101120.00;;;;5070388;28;20556;-68
2023/03/19 10:36:39;;;;;;;7.43;4.03;;;11.50;99.90;14.10;101141.00;;;;5047749;28;20203;-68
2023/03/19 10:39:15;;;;;;;4.07;2.33;;;11.70;99.90;14.90;101116.00;;;;5057092;28;20532;-68
2023/03/19 10:41:58;;;;;;;0.83;0.83;;;12.10;99.90;14.40;101143.00;;;;5058442;28;20183;-68
2023/03/19 10:45:04;;;;;;;2.17;2.00;;;12.10;99.90;15.10;101140.00;;;;5058248;28;20193;-68
2023/03/19 10:47:40;;;;;;;1.57;1.47;;;12.30;99.90;13.90;101152.00;;;;5054050;28;20192;-68
2023/03/19 10:50:15;;;;;;;2.07;2.00;;;12.00;99.90;14.60;101146.00;;;;5057548;28;20184;-68
2023/03/19 10:53:30;;;;;;;0.40;0.40;;;12.00;99.90;15.00;101170.00;;;;5057446;28;20227;-68
2023/03/19 10:56:21;;;;;;;3.47;3.23;;;12.40;99.90;15.40;101170.00;;;;5058957;28;20213;-68
2023/03/19 11:00:03;;;;;;;2.97;1.83;;;12.40;99.90;14.20;101176.00;;;;5057228;28;20264;-68
2023/03/19 11:02:32;;;;;;;0.63;0.63;;;12.50;99.90;15.90;101183.00;;;;5045163;28;20203;-68
2023/03/19 11:05:28;;;;;;;6.53;4.87;;;12.60;99.90;14.60;101177.00;;;;5091058;28;20196;-68
2023/03/19 11:08:05;;;;;;;0.60;0.60;;;12.30;99.90;15.50;101183.00;;;;5057330;28;20606;-68
2023/03/19 11:10:35;;;;;;;4.20;3.63;;;12.40;99.90;14.20;101187.00;;;;5040424;28;20650;-68
2023/03/19 11:13:24;;;;;;;0.20;0.20;;;12.30;99.90;14.80;101168.00;;;;5058796;28;20304;-68
2023/03/19 11:16:13;;;;;;;0.20;0.20;;;12.00;99.90;16.60;101199.00;;;;5074035;28;20263;-68
2023/03/19 11:19:16;;;;;;;3.73;3.43;;;12.90;99.90;16.50;101238.00;;;;5056856;28;20787;-68
2023/03/19 11:22:00;;;;;;;1.50;1.40;;;13.30;99.90;16.30;101223.00;;;;5057169;28;20198;-68
2023/03/19 11:24:41;;;;;;;9.97;5.90;;;13.20;99.90;16.00;101239.00;;;;5056930;28;20197;-68
2023/03/19 11:27:12;;;;;;;1.10;1.10;;;13.40;99.90;15.30;101230.00;;;;5057555;28;21111;-68
2023/03/19 11:30:05;;;;;;;2.77;2.30;;;13.00;99.90;13.90;101206.00;;;;5056568;28;20237;-68
2023/03/19 11:32:49;;;;;;;0.20;0.20;;;12.20;99.90;15.20;101203.00;;;;5039812;28;20308;-68
2023/03/19 11:36:04;;;;;;;5.00;4.53;;;12.30;99.90;16.00;101236.00;;;;5057669;28;20182;-68
2023/03/19 11:39:14;;;;;;;1.70;1.60;;;12.80;99.90;16.20;101232.00;;;;5058209;28;20193;-68
2023/03/19 11:42:24;;;;;;;1.67;1.57;;;12.70;99.90;17.30;101229.00;;;;5056421;28;20651;-68
2023/03/19 11:45:19;;;;;;;1.60;0.93;;;13.50;99.90;14.40;101226.00;;;;5043605;28;20675;-68
2023/03/19 11:48:19;;;;;;;0.20;0.20;;;12.90;99.90;15.10;101220.00;;;;5040818;28;20217;-68
2023/03/19 11:51:17;;;;;;;1.60;0.63;;;12.60;99.90;15.20;101233.00;;;;5044860;28;20643;-68
2023/03/19 11:54:04;;;;;;;1.43;1.43;;;12.70;99.90;17.10;101248.00;;;;5044169;28;20171;-68
2023/03/19 11:56:51;;;;;;;3.70;2.47;;;13.20;99.90;16.50;101252.00;;;;5032399;28;20182;-64
2023/03/19 12:00:12;;;;;;;5.27;4.77;;;13.40;99.90;14.90;101228.00;;;;5028319;28;20288;-68
2023/03/19 12:03:11;;;;;;;2.63;2.50;;;12.80;99.90;16.60;101239.00;;;;5023576;28;20195;-69
2023/03/19 12:06:28;;;;;;;0.50;0.50;;;13.20;99.90;18.10;101268.00;;;;5028083;28;20403;-68
2023/03/19 12:09:00;;;;;;;0.97;0.97;;;13.90;99.90;18.60;101280.00;;;;5032842;28;20200;-69
2023/03/19 12:11:47;;;;;;;0.40;0.40;;;14.70;99.90;19.30;101289.00;;;;5029224;28;20243;-68
2023/03/19 12:14:21;;;;;;;5.47;4.27;;;15.30;99.90;19.00;101248.00;;;;5035433;28;20193;-68
2023/03/19 12:17:25;;;;;;;1.70;1.07;;;15.50;99.90;16.70;101208.00;;;;5026164;28;20199;-68
2023/03/19 12:20:13;;;;;;;15.00;6.30;;;14.30;99.90;16.30;101266.00;;;;5032079;28;20203;-68
2023/03/19 12:23:06;;;;;;;4.93;4.10;;;13.70;99.90;15.80;101255.00;;;;5030211;28;20196;-68
2023/03/19 12:25:59;;;;;;;4.63;3.57;;;13.60;99.90;15.80;101254.00;;;;5031094;28;20192;-68
2023/03/19 12:28:33;;;;;;;7.40;4.33;;;13.20;99.90;15.90;101258.00;;;;5047494;28;20200;-68
2023/03/19 12:31:17;;;;;;;2.43;2.33;;;13.40;99.90;15.80;101250.00;;;;5046148;28;20190;-68
2023/03/19 12:34:11;;;;;;;4.27;3.97;;;13.10;99.90;14.80;101244.00;;;;5048932;28;20560;-68
2023/03/19 12:36:51;;;;;;;2.70;2.33;;;12.90;99.90;15.60;101206.00;;;;5042852;28;20237;-68
2023/03/19 12:39:25;;;;;;;11.33;3.87;;;12.80;99.90;15.10;101249.00;;;;5032771;28;20186;-68
2023/03/19 12:41:55;;;;;;;6.13;4.50;;;13.00;99.90;15.50;101227.00;;;;5032685;28;20176;-69
2023/03/19 12:44:43;;;;;;;5.93;4.10;;;13.10;99.90;16.50;101287.00;;;;5032852;28;20184;-69
2023/03/19 12:48:01;;;;;;;0.77;0.77;;;13.50;99.90;17.00;101285.00;;;;5033204;28;20187;-68
2023/03/19 12:50:34;;;;;;;2.60;2.37;;;13.70;99.90;16.50;101295.00;;;;5030790;28;20183;-68
2023/03/19 12:53:39;;;;;;;4.17;2.90;;;14.10;99.90;16.70;101292.00;;;;5038840;28;20230;-68
2023/03/19 13:00:12;;;;;;;2.23;2.10;;;14.80;99.90;15.50;101282.00;;;;5061777;28;20206;-68
2023/03/19 13:03:03;;;;;;;5.57;3.60;;;13.80;99.90;16.10;101292.00;;;;5052495;28;20224;-68
2023/03/19 13:06:00;;;;;;;2.83;2.23;;;13.80;99.90;15.50;101304.00;;;;5043204;28;20183;-68
2023/03/19 13:08:38;;;;;;;3.80;2.70;;;13.60;99.90;16.30;101308.00;;;;5037812;28;20196;-68
2023/03/19 13:11:30;;;;;;;0.60;0.60;;;13.80;99.90;18.30;101328.00;;;;5037372;28;20210;-68
2023/03/19 13:14:29;;;;;;;0.87;0.73;;;14.40;99.90;18.80;101339.00;;;;5041834;28;20243;-68
2023/03/19 13:17:23;;;;;;;0.50;0.50;;;15.10;99.90;18.90;101328.00;;;;5041307;28;20184;-68
2023/03/19 13:19:59;;;;;;;0.30;0.30;;;15.50;99.90;19.20;101331.00;;;;5041971;28;20183;-68
2023/03/19 13:22:44;;;;;;;0.53;0.53;;;15.50;99.90;18.70;101347.00;;;;5041463;28;20197;-68
2023/03/19 13:25:55;;;;;;;0.20;0.20;;;15.40;99.90;18.90;101344.00;;;;5027920;28;20585;-68
2023/03/19 13:28:45;;;;;;;0.20;0.20;;;15.30;99.90;18.90;101357.00;;;;5030971;28;20663;-68
2023/03/19 13:31:42;;;;;;;2.83;2.10;;;15.40;99.90;18.70;101314.00;;;;5033259;28;20184;-68
2023/03/19 13:37:26;;;;;;;3.07;2.97;;;15.60;99.90;18.70;101358.00;;;;5033488;28;20197;-68
2023/03/19 13:41:03;;;;;;;1.13;1.13;;;15.30;99.90;20.00;101372.00;;;;5025675;28;20186;-68
2023/03/19 13:43:37;;;;;;;0.30;0.30;;;15.80;99.90;19.90;101392.00;;;;5030784;28;20750;-68
2023/03/19 13:49:25;;;;;;;0.20;0.20;;;16.20;99.90;19.60;101374.00;;;;5032542;28;20195;-68
2023/03/19 13:52:32;;;;;;;0.13;0.13;;;16.00;99.90;19.40;101431.00;;;;5032178;28;20269;-68
2023/03/19 13:55:25;;;;;;;0.60;0.60;;;16.00;99.90;18.50;101441.00;;;;5027057;28;20206;-68
2023/03/19 14:01:33;;;;;;;1.07;1.00;;;15.30;99.90;18.10;101437.00;;;;5029478;28;20197;-68
2023/03/19 14:04:28;;;;;;;1.40;1.17;;;15.10;99.90;18.20;101426.00;;;;5032754;28;20185;-68
2023/03/19 14:07:47;;;;;;;0.27;0.27;;;14.90;99.90;18.50;101435.00;;;;5027464;28;20267;-68
2023/03/19 14:10:28;;;;;;;0.23;0.23;;;14.80;99.90;17.60;101427.00;;;;5026798;28;20270;-68
2023/03/19 14:13:23;;;;;;;0.50;0.50;;;14.60;99.90;17.50;101379.00;;;;5031986;28;20293;-69
2023/03/19 14:15:50;;;;;;;0.30;0.30;;;14.30;99.90;17.80;101408.00;;;;5026776;28;20258;-69
2023/03/19 14:18:24;;;;;;;0.20;0.20;;;14.10;99.90;17.80;101380.00;;;;5031092;28;20211;-69
2023/03/19 14:21:00;;;;;;;0.93;0.40;;;14.10;99.90;17.50;101414.00;;;;5031271;28;20647;-68
2023/03/19 14:23:59;;;;;;;0.20;0.20;;;14.10;99.90;17.20;101423.00;;;;5028845;28;20274;-68
2023/03/19 14:27:15;;;;;;;0.20;0.20;;;13.90;99.90;16.80;101423.00;;;;5030144;28;20202;-68
2023/03/19 14:30:19;;;;;;;0.10;0.10;;;13.70;99.90;16.30;101405.00;;;;5034229;28;20177;-68
2023/03/19 14:33:48;;;;;;;0.20;0.20;;;13.40;99.90;16.40;101406.00;;;;5023792;28;20749;-68
2023/03/19 14:36:43;;;;;;;0.10;0.10;;;13.30;99.90;15.90;101364.00;;;;5030274;28;20245;-68
2023/03/19 14:39:30;;;;;;;1.17;0.83;;;13.10;99.90;15.10;101399.00;;;;5029258;28;20197;-68
2023/03/19 14:42:05;;;;;;;0.43;0.43;;;12.70;99.90;15.60;101391.00;;;;5030207;28;20278;-68
2023/03/19 14:45:14;;;;;;;0.20;0.20;;;12.60;99.90;16.50;101412.00;;;;5029733;28;20694;-68
2023/03/19 14:47:57;;;;;;;1.60;0.80;;;12.90;99.90;16.00;101407.00;;;;5029225;28;20204;-68
2023/03/19 14:51:06;;;;;;;0.27;0.27;;;12.80;99.90;16.70;101385.00;;;;5025637;28;20185;-68
2023/03/19 14:53:43;;;;;;;0.63;0.63;;;13.00;99.90;17.10;101428.00;;;;5021692;28;20286;-68
2023/03/19 14:56:30;;;;;;;0.77;0.77;;;13.40;99.90;17.10;101389.00;;;;5030425;28;20192;-68
2023/03/19 14:59:02;;;;;;;0.20;0.20;;;13.60;99.90;17.00;101420.00;;;;5030803;28;20322;-68
2023/03/19 15:01:53;;;;;;;1.17;1.17;;;13.70;99.90;17.10;101429.00;;;;5049155;28;20669;-68
2023/03/19 15:04:54;;;;;;;0.20;0.20;;;13.80;99.90;17.00;101419.00;;;;5021751;28;20289;-68
2023/03/19 15:07:46;;;;;;;0.40;0.40;;;13.70;99.90;16.80;101422.00;;;;5040224;28;20676;-68
2023/03/19 15:11:15;;;;;;;0.47;0.30;;;13.50;99.90;16.40;101410.00;;;;5072580;28;20197;-68
2023/03/19 15:14:54;;;;;;;0.20;0.20;;;13.40;99.90;17.00;101427.00;;;;5034432;28;20284;-68
2023/03/19 15:18:02;;;;;;;0.65;0.65;;;13.40;99.90;17.00;101429.00;;;;5016458;28;20455;-68
2023/03/19 15:20:53;;;;;;;0.50;0.43;;;13.40;99.90;17.10;101440.00;;;;4997657;28;20278;-68
2023/03/19 15:23:59;;;;;;;0.50;0.50;;;13.60;99.90;17.00;101440.00;;;;5019517;28;20339;-68
2023/03/19 15:26:49;;;;;;;0.40;0.40;;;13.60;99.90;16.60;101456.00;;;;5056579;28;20193;-69
2023/03/19 15:30:10;;;;;;;0.43;0.43;;;13.50;99.90;16.80;101452.00;;;;5037468;28;20209;-68
2023/03/19 15:33:26;;;;;;;0.20;0.20;;;13.50;99.90;17.00;101443.00;;;;5043123;28;20229;-68
2023/03/19 15:36:46;;;;;;;0.30;0.30;;;13.60;99.90;17.70;101444.00;;;;5029979;28;20189;-69
2023/03/19 15:39:37;;;;;;;0.20;0.20;;;13.80;99.90;17.60;101460.00;;;;5043461;28;20578;-69
2023/03/19 15:42:29;;;;;;;1.00;0.43;;;14.00;99.90;17.00;101437.00;;;;5058943;28;20264;-69
2023/03/19 15:45:10;;;;;;;0.37;0.37;;;13.80;99.90;16.80;101455.00;;;;5042044;28;20194;-68
2023/03/19 15:47:58;;;;;;;0.20;0.20;;;13.60;99.90;16.90;101419.00;;;;5042344;28;20188;-68
2023/03/19 15:50:45;;;;;;;0.20;0.20;;;13.50;99.90;16.80;101452.00;;;;5042892;28;20191;-68
2023/03/19 15:53:32;;;;;;;0.30;0.30;;;13.50;99.90;17.00;101479.00;;;;5042224;28;20587;-68
2023/03/19 15:56:01;;;;;;;0.50;0.50;;;13.60;99.90;16.90;101488.00;;;;5042565;28;20190;-68
2023/03/19 15:59:04;;;;;;;0.30;0.30;;;13.50;99.90;17.20;101485.00;;;;5042641;28;20255;-68
2023/03/19 16:01:32;;;;;;;0.60;0.60;;;13.50;99.90;16.90;101489.00;;;;5041487;28;20654;-68
2023/03/19 16:04:06;;;;;;;0.80;0.80;;;13.50;99.90;17.30;101496.00;;;;5042648;28;20202;-68
2023/03/19 16:06:57;;;;;;;1.20;1.20;;;13.50;99.90;15.40;101493.00;;;;5043945;28;20186;-68
2023/03/19 16:09:27;;;;;;;0.53;0.40;;;13.00;99.90;15.40;101478.00;;;;5041964;28;20229;-68
2023/03/19 16:12:40;;;;;;;1.27;0.93;;;12.70;99.90;14.60;101480.00;;;;5042677;28;20202;-69
2023/03/19 16:16:03;;;;;;;0.30;0.30;;;12.20;99.90;15.40;101492.00;;;;5042486;28;20200;-69
2023/03/19 16:22:31;;;;;;;0.50;0.50;;;12.50;99.90;16.00;101500.00;;;;5027153;28;20192;-69
2023/03/19 16:25:19;;;;;;;0.30;0.30;;;12.60;99.90;16.30;101508.00;;;;5007407;28;20622;-69
2023/03/19 16:28:36;;;;;;;0.20;0.20;;;12.80;99.90;16.70;101520.00;;;;5023979;28;20237;-68
2023/03/19 16:31:02;;;;;;;0.20;0.20;;;12.90;99.90;16.30;101517.00;;;;5024713;28;21123;-69
2023/03/19 16:33:51;;;;;;;0.50;0.50;;;12.90;99.90;16.30;101525.00;;;;5037033;28;20350;-69
2023/03/19 16:36:39;;;;;;;0.30;0.30;;;12.80;99.90;16.20;101535.00;;;;5039776;28;20641;-72
2023/03/19 16:39:23;;;;;;;0.40;0.40;;;12.80;99.90;16.20;101502.00;;;;5033965;28;20181;-71
2023/03/19 16:42:11;;;;;;;0.20;0.20;;;12.70;99.90;16.60;101557.00;;;;5049917;28;20323;-71
2023/03/19 16:45:17;;;;;;;0.30;0.30;;;12.90;99.90;16.30;101567.00;;;;5033731;28;20196;-71
2023/03/19 16:48:04;;;;;;;0.20;0.20;;;12.80;99.90;16.50;101570.00;;;;5034627;28;20625;-67
2023/03/19 16:50:57;;;;;;;0.20;0.20;;;12.80;99.90;16.30;101582.00;;;;5027890;28;20234;-68
2023/03/19 16:53:42;;;;;;;0.20;0.20;;;12.80;99.90;15.90;101578.00;;;;5035547;28;20298;-68
2023/03/19 16:56:29;;;;;;;0.20;0.20;;;12.60;99.90;16.10;101569.00;;;;5041903;28;20188;-68
2023/03/19 16:59:21;;;;;;;0.20;0.20;;;12.50;99.90;16.30;101530.00;;;;5042252;28;20198;-68
2023/03/19 17:02:40;;;;;;;0.20;0.20;;;12.50;99.90;16.40;101575.00;;;;5042111;28;20201;-69
2023/03/19 17:05:24;;;;;;;2.77;1.33;;;12.60;99.90;16.00;101584.00;;;;5042885;28;20201;-68
2023/03/19 17:08:15;;;;;;;0.20;0.20;;;12.70;99.90;15.50;101574.00;;;;5042554;28;20191;-69
2023/03/19 17:11:24;;;;;;;0.20;0.20;;;12.40;99.90;15.90;101577.00;;;;5042322;28;20559;-68
2023/03/19 17:15:17;;;;;;;0.20;0.20;;;12.40;99.90;16.40;101581.00;;;;5040706;28;20198;-69
2023/03/19 17:17:43;;;;;;;0.30;0.30;;;12.60;99.90;16.30;101596.00;;;;5041700;28;20194;-69
2023/03/19 17:21:08;;;;;;;0.30;0.30;;;12.60;99.90;16.00;101591.00;;;;5040552;28;20322;-69
2023/03/19 17:23:34;;;;;;;0.30;0.30;;;12.50;99.90;16.10;101615.00;;;;5040703;28;20199;-68
2023/03/19 17:26:29;;;;;;;0.20;0.20;;;12.60;99.90;15.80;101604.00;;;;5040582;28;20548;-68
2023/03/19 17:29:03;;;;;;;0.30;0.30;;;12.40;99.90;15.30;101602.00;;;;5032744;28;20284;-68
2023/03/19 17:31:40;;;;;;;0.30;0.30;;;12.20;99.90;15.50;101599.00;;;;5042873;28;20203;-68
2023/03/19 17:34:22;;;;;;;0.30;0.30;;;12.10;99.90;15.60;101602.00;;;;5040980;28;20273;-69
2023/03/19 17:37:29;;;;;;;0.27;0.27;;;12.10;99.90;15.70;101618.00;;;;5040676;28;20263;-68
2023/03/19 17:40:13;;;;;;;0.30;0.30;;;12.00;99.90;15.30;101631.00;;;;5042278;28;20178;-68
2023/03/19 17:43:15;;;;;;;0.37;0.37;;;12.10;99.90;15.20;101625.00;;;;5040815;28;20403;-68
2023/03/19 17:45:50;;;;;;;0.20;0.20;;;12.10;99.90;15.30;101624.00;;;;5040854;28;20183;-69
2023/03/19 17:49:04;;;;;;;0.30;0.30;;;12.00;99.90;14.90;101643.00;;;;5069489;28;20509;-68
2023/03/19 17:51:35;;;;;;;0.60;0.60;;;11.90;99.90;15.20;101648.00;;;;5028488;28;20252;-69
2023/03/19 17:54:44;;;;;;;0.30;0.30;;;11.80;99.90;15.40;101656.00;;;;5033024;28;20174;-69
2023/03/19 17:57:49;;;;;;;0.40;0.40;;;11.90;99.90;15.30;101649.00;;;;5022234;28;20199;-69
2023/03/19 18:00:54;;;;;;;0.30;0.30;;;11.80;99.90;14.80;101654.00;;;;5043486;28;20210;-70
2023/03/19 18:03:52;;;;;;;0.30;0.30;;;11.70;99.90;14.90;101654.00;;;;5019031;28;20638;-69
2023/03/19 18:07:12;;;;;;;0.30;0.30;;;11.70;99.90;15.20;101664.00;;;;5032214;28;20185;-69
2023/03/19 18:10:26;;;;;;;0.43;0.43;;;11.60;99.90;15.60;101680.00;;;;5030386;28;20664;-70
2023/03/19 18:13:19;;;;;;;0.30;0.30;;;11.80;99.90;15.10;101627.00;;;;5043906;28;20698;-69
2023/03/19 18:16:20;;;;;;;0.40;0.40;;;11.80;99.90;15.50;101668.00;;;;5024601;28;20190;-70
2023/03/19 18:19:46;;;;;;;0.30;0.30;;;11.80;99.90;15.10;101684.00;;;;5028935;28;20275;-70
2023/03/19 18:22:52;;;;;;;0.27;0.27;;;11.80;99.90;14.80;101682.00;;;;5046411;28;20193;-69
2023/03/19 18:25:45;;;;;;;0.30;0.30;;;11.60;99.90;15.40;101691.00;;;;5002215;28;20195;-69
2023/03/19 18:28:44;;;;;;;1.07;1.07;;;11.70;99.90;15.80;101695.00;;;;5027517;28;20184;-69
2023/03/19 18:32:12;;;;;;;0.40;0.40;;;11.90;99.90;15.30;101689.00;;;;5023733;28;20197;-69
2023/03/19 18:35:17;;;;;;;0.30;0.30;;;11.80;99.90;15.20;101685.00;;;;5044770;28;21511;-69
2023/03/19 18:38:15;;;;;;;0.30;0.30;;;11.60;99.90;15.70;101690.00;;;;5029414;28;20250;-69
2023/03/19 18:41:19;;;;;;;0.93;0.93;;;11.90;99.90;15.30;101697.00;;;;5031252;28;20520;-69
2023/03/19 18:44:43;;;;;;;0.40;0.40;;;11.80;99.90;14.60;101686.00;;;;5031717;28;20198;-69
2023/03/19 18:47:59;;;;;;;0.30;0.30;;;11.50;99.90;14.40;101688.00;;;;5032613;28;20208;-69
2023/03/19 18:51:00;;;;;;;0.40;0.40;;;11.40;99.90;15.20;101677.00;;;;5031685;28;20205;-69
2023/03/19 18:54:12;;;;;;;0.97;0.97;;;11.60;99.90;14.70;101689.00;;;;5029933;28;20209;-69
2023/03/19 18:57:04;;;;;;;0.30;0.30;;;11.50;99.90;15.00;101657.00;;;;5035779;28;20185;-69
2023/03/19 19:00:09;;;;;;;0.50;0.40;;;11.40;99.90;14.90;101690.00;;;;5034402;28;20182;-69
2023/03/19 19:03:17;;;;;;;0.37;0.37;;;11.40;99.90;14.60;101699.00;;;;5029577;28;20186;-69
2023/03/19 19:08:56;;;;;;;0.30;0.30;;;11.40;99.90;15.10;101711.00;;;;5034610;28;20199;-69
2023/03/19 19:11:25;;;;;;;1.50;1.13;;;11.40;99.90;15.10;101710.00;;;;5061314;28;20190;-69
2023/03/19 19:14:29;;;;;;;0.30;0.30;;;11.60;99.90;15.30;101709.00;;;;5060695;28;20191;-69
2023/03/19 19:17:20;;;;;;;0.27;0.27;;;11.60;99.90;15.30;101716.00;;;;5044647;28;20584;-69
2023/03/19 19:20:23;;;;;;;0.30;0.30;;;11.60;99.90;15.40;101716.00;;;;5028292;28;20191;-69
2023/03/19 19:23:06;;;;;;;0.30;0.30;;;11.60;99.90;15.20;101679.00;;;;5042514;28;20340;-69
2023/03/19 19:25:32;;;;;;;0.30;0.30;;;11.60;99.90;15.40;101717.00;;;;5043056;28;20179;-69
2023/03/19 19:28:21;;;;;;;0.30;0.30;;;11.70;99.90;15.30;101718.00;;;;5042555;28;20198;-69
2023/03/19 19:31:18;;;;;;;0.30;0.30;;;11.60;99.90;15.00;101715.00;;;;5042973;28;20195;-69
2023/03/19 19:34:11;;;;;;;0.43;0.43;;;11.50;99.90;15.20;101723.00;;;;5044845;28;20186;-69
2023/03/19 19:37:01;;;;;;;0.30;0.30;;;11.50;99.90;14.70;101717.00;;;;5043345;28;20198;-69
2023/03/19 19:40:03;;;;;;;0.30;0.30;;;11.30;99.90;14.90;101725.00;;;;5043419;28;20639;-69
2023/03/19 19:42:51;;;;;;;0.30;0.30;;;11.20;99.90;14.50;101727.00;;;;5043517;28;20198;-69
2023/03/19 19:45:42;;;;;;;0.30;0.30;;;11.10;99.90;14.30;101737.00;;;;5043695;28;20192;-69
2023/03/19 19:52:51;;;;;;;0.30;0.30;;;10.80;99.90;14.20;101732.00;;;;5003524;28;20225;-69
2023/03/19 19:56:13;;;;;;;23.70;22.63;;;10.70;99.90;14.30;101731.00;;;;5018284;28;20634;-69
2023/03/19 19:59:33;;;;;;;0.30;0.30;;;10.60;99.90;14.80;101749.00;;;;5002783;28;20205;-69
2023/03/19 20:02:47;;;;;;;0.30;0.30;;;10.60;99.90;14.60;101751.00;;;;4984828;28;20198;-69
2023/03/19 20:13:35;;;;;;;0.30;0.30;;;10.80;99.90;14.60;101767.00;;;;5013480;28;20319;-69
2023/03/19 20:16:55;;;;;;;0.30;0.30;;;11.00;99.90;13.90;101768.00;;;;4993827;28;20244;-69
2023/03/19 20:20:16;;;;;;;2.30;2.03;;;10.70;99.90;13.60;101758.00;;;;5027264;28;20658;-69
2023/03/19 20:23:36;;;;;;;0.30;0.30;;;10.30;99.90;14.00;101756.00;;;;5032132;28;20203;-69
2023/03/19 20:26:59;;;;;;;3.07;2.27;;;10.40;99.90;13.40;101764.00;;;;5032979;28;20194;-69
2023/03/19 20:30:18;;;;;;;3.20;1.73;;;10.30;99.90;13.50;101714.00;;;;5030778;28;20181;-69
2023/03/19 20:33:22;;;;;;;0.30;0.30;;;10.10;99.90;13.20;101780.00;;;;5032980;28;20221;-69
2023/03/19 20:36:26;;;;;;;0.40;0.40;;;10.10;99.90;13.80;101784.00;;;;5029318;28;20803;-70
2023/03/19 20:42:52;;;;;;;0.53;0.53;;;10.00;99.90;12.20;101763.00;;;;5027243;28;20230;-69
2023/03/19 20:45:53;;;;;;;1.57;1.50;;;9.40;99.90;12.50;101770.00;;;;5033656;28;20208;-68
2023/03/19 20:48:53;;;;;;;0.87;0.87;;;9.30;99.90;12.50;101770.00;;;;5031880;28;20204;-68
2023/03/19 20:52:02;;;;;;;0.63;0.63;;;9.30;99.90;11.80;101758.00;;;;5031737;28;20586;-69
2023/03/19 20:54:51;;;;;;;0.47;0.47;;;9.20;99.90;12.10;101761.00;;;;5032583;28;20735;-69
2023/03/19 20:57:38;;;;;;;0.93;0.93;;;9.20;99.90;11.80;101737.00;;;;5016981;28;20635;-68
